Time;durP1;ratioP1;P1;durP2;ratioP2;P2;SDS_P1;SDS_P2;PMS_P1;PMS_P2;Temp;Humidity;BMP_temperature;BMP_pressure;BME280_temperature;BME280_humidity;BME280_pressure;Samples;Min_cycle;Max_cycle;Signal;HPM_P1;HPM_P2
2022/04/01 00:00:31;;;;;;;;;;;;;;;16.07;62.84;97427.94;4415756;32;19977;-77
2022/04/01 00:02:58;;;;;;;;;;;;;;;16.11;62.62;97426.88;4402529;32;19978;-76
2022/04/01 00:05:25;;;;;;;;;;;;;;;16.18;62.33;97427.47;4414999;32;20393;-77
2022/04/01 00:07:51;;;;;;;;;;;;;;;16.17;62.21;97423.16;4415416;32;19996;-80
2022/04/01 00:10:18;;;;;;;;;;;;;;;16.04;62.62;97431.53;4415948;32;19997;-79
2022/04/01 00:12:46;;;;;;;;;;;;;;;16.00;62.81;97424.75;4416956;32;19978;-80
2022/04/01 00:15:13;;;;;;;;;;;;;;;16.16;62.07;97430.16;4416607;32;19978;-76
2022/04/01 00:17:40;;;;;;;;;;;;;;;16.10;62.27;97429.56;4416171;32;19981;-77
2022/04/01 00:20:09;;;;;;;;;;;;;;;16.21;61.75;97422.97;4416329;32;20369;-77
2022/04/01 00:22:36;;;;;;;;;;;;;;;16.08;62.25;97426.19;4416868;32;20028;-77
2022/04/01 00:25:03;;;;;;;;;;;;;;;16.13;62.18;97430.28;4414793;32;20331;-76
2022/04/01 00:27:30;;;;;;;;;;;;;;;16.12;62.16;97427.75;4418411;32;20020;-77
2022/04/01 00:29:57;;;;;;;;;;;;;;;16.16;62.00;97424.94;4432017;32;20133;-80
2022/04/01 00:32:24;;;;;;;;;;;;;;;16.26;61.47;97418.38;4433215;32;20009;-79
2022/04/01 00:34:52;;;;;;;;;;;;;;;16.18;61.71;97410.06;4447352;32;19992;-76
2022/04/01 00:37:18;;;;;;;;;;;;;;;16.19;61.86;97416.97;4446176;32;19988;-77
2022/04/01 00:39:46;;;;;;;;;;;;;;;16.03;62.38;97419.41;4447042;32;20703;-76
2022/04/01 00:42:13;;;;;;;;;;;;;;;16.00;62.58;97418.72;4446731;32;20016;-76
2022/04/01 00:44:39;;;;;;;;;;;;;;;16.08;62.18;97411.41;4438025;32;19993;-76
2022/04/01 00:47:11;;;;;;;;;;;;;;;16.14;62.21;97405.88;4123411;32;10003801;-77
2022/04/01 00:49:38;;;;;;;;;;;;;;;15.84;63.37;97402.03;4417135;32;19993;-75
2022/04/01 00:52:09;;;;;;;;;;;;;;;15.89;63.42;97394.84;4431397;32;20003;-78
2022/04/01 00:54:36;;;;;;;;;;;;;;;15.89;63.46;97406.16;4416645;32;19996;-75
2022/04/01 00:57:04;;;;;;;;;;;;;;;15.92;63.23;97410.34;4431800;32;20036;-78
2022/04/01 00:59:32;;;;;;;;;;;;;;;15.89;63.17;97408.75;4430812;32;19990;-79
2022/04/01 01:02:00;;;;;;;;;;;;;;;15.51;64.62;97411.25;4431389;32;19996;-76
2022/04/01 01:04:27;;;;;;;;;;;;;;;15.81;63.58;97401.25;4431623;32;20330;-79
2022/04/01 01:06:55;;;;;;;;;;;;;;;15.89;63.43;97400.94;4430787;32;20040;-76
2022/04/01 01:09:23;;;;;;;;;;;;;;;15.98;63.03;97415.31;4410492;32;20020;-78
2022/04/01 01:11:51;;;;;;;;;;;;;;;16.01;62.86;97413.41;4421032;32;20023;-77
2022/04/01 01:14:26;;;;;;;;;;;;;;;16.10;62.52;97417.37;4431490;32;20049;-79
2022/04/01 01:16:53;;;;;;;;;;;;;;;15.92;63.43;97415.56;4442947;32;20400;-78
2022/04/01 01:19:20;;;;;;;;;;;;;;;15.96;63.39;97417.16;4431037;32;19985;-77
2022/04/01 01:21:51;;;;;;;;;;;;;;;15.90;63.38;97413.06;4431595;32;20000;-74
2022/04/01 01:24:23;;;;;;;;;;;;;;;15.91;63.62;97409.50;4430695;32;19981;-78
2022/04/01 01:26:51;;;;;;;;;;;;;;;15.93;63.55;97415.53;4430200;32;19994;-75
2022/04/01 01:29:25;;;;;;;;;;;;;;;15.99;63.18;97406.59;4423580;32;20000;-75
2022/04/01 01:31:55;;;;;;;;;;;;;;;15.74;64.05;97418.09;4433086;32;19989;-78
2022/04/01 01:34:23;;;;;;;;;;;;;;;15.92;63.66;97410.34;4446648;32;20351;-79
2022/04/01 01:36:50;;;;;;;;;;;;;;;15.83;63.83;97405.56;4445685;32;19996;-78
2022/04/01 01:39:18;;;;;;;;;;;;;;;15.90;63.54;97407.00;4445431;32;20026;-75
2022/04/01 01:41:45;;;;;;;;;;;;;;;15.77;64.06;97410.13;4446841;32;20016;-77
2022/04/01 01:44:12;;;;;;;;;;;;;;;15.98;63.35;97405.72;4446413;32;19973;-78
2022/04/01 01:46:39;;;;;;;;;;;;;;;16.00;63.12;97405.66;4446646;32;20004;-77
2022/04/01 01:49:07;;;;;;;;;;;;;;;16.21;62.29;97407.31;4446469;32;20060;-77
2022/04/01 01:54:43;;;;;;;;;;;;;;;15.90;63.40;97401.78;4445396;32;20018;-79
2022/04/01 01:57:10;;;;;;;;;;;;;;;16.01;63.16;97409.94;4447308;32;20024;-79
2022/04/01 01:59:38;;;;;;;;;;;;;;;15.98;63.42;97415.31;4446462;32;20042;-77
2022/04/01 02:02:05;;;;;;;;;;;;;;;15.84;63.78;97412.47;4446765;32;20037;-78
2022/04/01 02:04:34;;;;;;;;;;;;;;;15.87;63.96;97407.13;4446170;32;19978;-80
2022/04/01 02:07:02;;;;;;;;;;;;;;;15.96;63.65;97401.50;4446220;32;20012;-75
2022/04/01 02:09:29;;;;;;;;;;;;;;;15.92;63.68;97399.91;4446565;32;19989;-79
2022/04/01 02:11:57;;;;;;;;;;;;;;;15.94;63.62;97411.16;4446749;32;20041;-78
2022/04/01 02:14:24;;;;;;;;;;;;;;;15.91;63.60;97409.50;4446610;32;20011;-76
2022/04/01 02:16:51;;;;;;;;;;;;;;;15.92;63.63;97405.12;4446244;32;20026;-74
2022/04/01 02:19:24;;;;;;;;;;;;;;;15.90;63.68;97397.41;4446470;32;20306;-78
2022/04/01 02:21:51;;;;;;;;;;;;;;;15.81;63.90;97398.66;4445722;32;19989;-79
2022/04/01 02:24:23;;;;;;;;;;;;;;;15.96;63.40;97401.50;4127591;32;10003589;-79
2022/04/01 02:26:50;;;;;;;;;;;;;;;16.04;63.16;97391.56;4431187;32;20678;-77
2022/04/01 02:29:20;;;;;;;;;;;;;;;15.98;63.42;97394.44;4431273;32;20319;-80
2022/04/01 02:31:51;;;;;;;;;;;;;;;16.02;63.32;97390.78;4430957;32;20013;-80
2022/04/01 02:34:20;;;;;;;;;;;;;;;15.97;63.53;97382.31;4437839;32;20003;-79
2022/04/01 02:36:47;;;;;;;;;;;;;;;15.99;63.51;97375.28;4430567;32;19994;-79
2022/04/01 02:39:14;;;;;;;;;;;;;;;15.95;63.74;97368.47;4417270;32;20488;-77
2022/04/01 02:41:41;;;;;;;;;;;;;;;15.99;63.61;97364.84;4430952;32;20000;-78
2022/04/01 02:44:08;;;;;;;;;;;;;;;16.02;63.28;97360.31;4430427;32;20039;-81
2022/04/01 02:46:36;;;;;;;;;;;;;;;15.95;63.46;97371.97;4437666;32;19981;-80
2022/04/01 02:49:06;;;;;;;;;;;;;;;16.03;63.13;97377.66;4430809;32;20035;-77
2022/04/01 02:51:34;;;;;;;;;;;;;;;15.91;63.38;97373.00;4434961;32;20042;-78
2022/04/01 02:54:06;;;;;;;;;;;;;;;16.10;62.76;97367.78;4427424;32;20012;-75
2022/04/01 02:56:34;;;;;;;;;;;;;;;16.19;62.20;97372.59;4426624;32;19996;-76
2022/04/01 02:59:01;;;;;;;;;;;;;;;16.15;62.50;97364.97;4416537;32;19993;-76
2022/04/01 03:01:28;;;;;;;;;;;;;;;16.12;62.42;97360.75;4424823;32;20319;-76
2022/04/01 03:03:55;;;;;;;;;;;;;;;16.08;62.63;97363.53;4431758;32;20511;-75
2022/04/01 03:06:24;;;;;;;;;;;;;;;15.93;63.25;97365.09;4413948;32;19978;-78
2022/04/01 03:08:51;;;;;;;;;;;;;;;15.93;63.44;97365.09;4432614;32;19989;-77
2022/04/01 03:11:19;;;;;;;;;;;;;;;15.94;63.51;97356.34;4431739;32;19985;-75
2022/04/01 03:13:46;;;;;;;;;;;;;;;15.89;63.62;97353.97;4426226;32;19985;-75
2022/04/01 03:16:14;;;;;;;;;;;;;;;15.91;63.51;97366.94;4432066;32;19983;-76
2022/04/01 03:18:41;;;;;;;;;;;;;;;16.00;63.01;97371.75;4432415;32;19990;-79
2022/04/01 03:21:12;;;;;;;;;;;;;;;16.09;62.76;97386.97;4429810;32;19993;-80
2022/04/01 03:23:40;;;;;;;;;;;;;;;15.77;63.92;97389.28;4417990;32;20061;-75
2022/04/01 03:26:08;;;;;;;;;;;;;;;15.90;63.56;97380.91;4413271;32;20023;-79
2022/04/01 03:28:37;;;;;;;;;;;;;;;16.03;62.98;97361.16;4431788;32;20048;-79
2022/04/01 03:31:04;;;;;;;;;;;;;;;15.99;63.24;97338.75;4430474;32;20366;-77
2022/04/01 03:33:35;;;;;;;;;;;;;;;15.93;63.43;97346.84;4428262;32;19999;-75
2022/04/01 03:36:03;;;;;;;;;;;;;;;15.91;63.51;97357.34;4432439;32;19977;-80
2022/04/01 03:38:31;;;;;;;;;;;;;;;15.99;62.91;97360.47;4412730;32;19982;-80
2022/04/01 03:40:58;;;;;;;;;;;;;;;16.03;62.72;97369.00;4403456;32;19996;-79
2022/04/01 03:43:25;;;;;;;;;;;;;;;15.94;63.11;97372.00;4416918;32;20311;-79
2022/04/01 03:45:54;;;;;;;;;;;;;;;15.98;63.00;97369.19;4403098;32;19978;-80
2022/04/01 03:48:24;;;;;;;;;;;;;;;15.96;63.07;97370.19;4416904;32;19998;-80
2022/04/01 03:50:52;;;;;;;;;;;;;;;15.94;63.23;97366.78;4406105;32;20035;-80
2022/04/01 03:53:22;;;;;;;;;;;;;;;16.02;62.96;97369.91;4426261;32;19989;-79
2022/04/01 03:55:49;;;;;;;;;;;;;;;16.02;62.81;97370.75;4431252;32;20448;-75
2022/04/01 03:58:17;;;;;;;;;;;;;;;15.89;63.41;97373.97;4441893;32;19989;-78
2022/04/01 04:00:45;;;;;;;;;;;;;;;16.00;63.05;97371.75;4433414;32;20011;-73
2022/04/01 04:03:12;;;;;;;;;;;;;;;15.94;63.30;97372.84;4447455;32;20330;-80
2022/04/01 04:05:39;;;;;;;;;;;;;;;15.94;63.48;97369.41;4446900;32;20040;-74
2022/04/01 04:08:07;;;;;;;;;;;;;;;16.03;63.03;97369.00;4447923;32;19981;-78
2022/04/01 04:10:35;;;;;;;;;;;;;;;15.94;63.32;97377.22;4446968;32;20329;-76
2022/04/01 04:13:07;;;;;;;;;;;;;;;16.06;62.91;97365.41;4446684;32;19989;-76
2022/04/01 04:15:40;;;;;;;;;;;;;;;15.90;63.49;97360.03;4425074;32;20011;-80
2022/04/01 04:18:11;;;;;;;;;;;;;;;16.01;63.25;97342.94;4446840;32;19985;-77
2022/04/01 04:20:41;;;;;;;;;;;;;;;16.08;62.85;97327.88;4432149;32;19988;-80
2022/04/01 04:23:11;;;;;;;;;;;;;;;16.03;62.94;97335.06;4438097;32;19991;-78
2022/04/01 04:25:38;;;;;;;;;;;;;;;16.04;62.92;97326.31;4440522;32;19996;-76
2022/04/01 04:28:10;;;;;;;;;;;;;;;16.02;62.62;97336.00;4446999;32;19986;-79
2022/04/01 04:30:39;;;;;;;;;;;;;;;16.15;62.36;97334.50;4447845;32;20020;-77
2022/04/01 04:33:09;;;;;;;;;;;;;;;15.97;63.05;97340.56;4446740;32;20357;-74
2022/04/01 04:35:37;;;;;;;;;;;;;;;15.98;63.09;97335.25;4447260;32;20022;-75
2022/04/01 04:38:23;;;;;;;;;;;;;;;15.91;63.39;97340.84;4446329;32;20375;-74
2022/04/01 04:40:52;;;;;;;;;;;;;;;15.97;63.05;97341.41;4432810;32;19981;-74
2022/04/01 04:43:21;;;;;;;;;;;;;;;15.96;63.00;97351.94;4445992;32;19985;-73
2022/04/01 04:45:49;;;;;;;;;;;;;;;16.03;62.92;97353.34;4446837;32;20004;-77
2022/04/01 04:48:16;;;;;;;;;;;;;;;15.97;63.04;97356.22;4433122;32;19985;-76
2022/04/01 04:50:45;;;;;;;;;;;;;;;15.98;63.03;97352.69;4431348;32;20032;-76
2022/04/01 04:53:12;;;;;;;;;;;;;;;15.95;63.15;97368.47;4439868;32;20491;-75
2022/04/01 04:55:39;;;;;;;;;;;;;;;15.92;63.30;97373.84;4446486;32;20020;-74
2022/04/01 04:58:10;;;;;;;;;;;;;;;16.02;62.86;97364.69;4432285;32;19985;-76
2022/04/01 05:00:39;;;;;;;;;;;;;;;15.97;63.11;97367.50;4432224;32;19973;-75
2022/04/01 05:03:07;;;;;;;;;;;;;;;15.84;63.43;97361.16;4419744;32;19996;-75
2022/04/01 05:05:36;;;;;;;;;;;;;;;15.83;63.73;97363.84;4446630;32;19977;-75
2022/04/01 05:08:05;;;;;;;;;;;;;;;15.81;63.82;97362.13;4420016;32;19993;-76
2022/04/01 05:10:53;;;;;;;;;;;;;;;15.86;63.74;97374.09;4426798;32;20052;-76
2022/04/01 05:13:34;;;;;;;;;;;;;;;15.83;63.75;97369.06;4438054;32;19993;-76
2022/04/01 05:16:07;;;;;;;;;;;;;;;15.81;63.69;97377.78;4433019;32;20425;-75
2022/04/01 05:18:45;;;;;;;;;;;;;;;15.66;64.12;97378.41;4447163;32;19997;-76
2022/04/01 05:21:23;;;;;;;;;;;;;;;15.69;63.73;97382.69;4432489;32;19980;-76
2022/04/01 05:23:58;;;;;;;;;;;;;;;15.63;63.78;97382.91;4432130;32;19985;-76
2022/04/01 05:26:38;;;;;;;;;;;;;;;15.67;63.61;97385.38;4432747;32;20034;-77
2022/04/01 05:29:10;;;;;;;;;;;;;;;15.67;63.36;97374.94;4418760;32;19994;-77
2022/04/01 05:31:46;;;;;;;;;;;;;;;15.67;63.36;97380.16;4427632;32;19986;-79
2022/04/01 05:34:18;;;;;;;;;;;;;;;15.50;63.75;97378.25;4426784;32;20008;-79
2022/04/01 05:36:46;;;;;;;;;;;;;;;15.66;63.17;97378.41;4426443;32;20041;-79
2022/04/01 05:39:13;;;;;;;;;;;;;;;15.63;63.22;97373.34;4424236;32;20010;-80
2022/04/01 05:41:42;;;;;;;;;;;;;;;15.66;63.05;97378.41;4410699;32;20017;-79
2022/04/01 05:44:09;;;;;;;;;;;;;;;15.69;62.93;97378.31;4404471;32;20070;-78
2022/04/01 05:46:37;;;;;;;;;;;;;;;15.65;62.77;97371.50;4402495;32;19998;-79
2022/04/01 05:49:04;;;;;;;;;;;;;;;15.52;63.46;97370.38;4405512;32;19986;-81
2022/04/01 05:51:32;;;;;;;;;;;;;;;15.76;62.40;97374.53;4406223;32;19997;-80
2022/04/01 05:54:00;;;;;;;;;;;;;;;15.70;62.50;97374.81;4415100;32;20041;-79
2022/04/01 05:56:27;;;;;;;;;;;;;;;15.45;62.89;97384.59;4414314;32;20033;-78
2022/04/01 05:58:55;;;;;;;;;;;;;;;15.15;63.24;97387.56;4426575;32;19986;-78
2022/04/01 06:01:30;;;;;;;;;;;;;;;15.10;63.54;97389.53;4426036;32;19999;-78
2022/04/01 06:03:57;;;;;;;;;;;;;;;15.35;62.91;97395.41;4414551;32;20029;-78
2022/04/01 06:06:38;;;;;;;;;;;;;;;15.14;63.44;97388.47;4409573;32;19978;-78
2022/04/01 06:09:11;;;;;;;;;;;;;;;15.31;62.03;97383.38;4414564;32;19982;-78
2022/04/01 06:11:52;;;;;;;;;;;;;;;14.97;63.23;97383.12;4415445;32;19993;-78
2022/04/01 06:14:45;;;;;;;;;;;;;;;15.14;62.30;97380.66;4415519;32;20016;-79
2022/04/01 06:17:16;;;;;;;;;;;;;;;15.01;62.67;97374.28;4415447;32;20012;-80
2022/04/01 06:19:44;;;;;;;;;;;;;;;14.82;62.84;97374.19;4412748;32;20780;-79
2022/04/01 06:22:13;;;;;;;;;;;;;;;15.08;61.83;97373.94;4412537;32;20339;-80
2022/04/01 06:24:59;;;;;;;;;;;;;;;14.72;62.98;97373.69;4403879;32;20560;-79
2022/04/01 06:27:47;;;;;;;;;;;;;;;14.93;62.07;97371.13;4415106;32;19993;-79
2022/04/01 06:30:15;;;;;;;;;;;;;;;14.92;61.46;97369.44;4408930;32;19986;-80
2022/04/01 06:32:52;;;;;;;;;;;;;;;14.79;61.95;97377.75;4407482;32;19982;-80
2022/04/01 06:35:31;;;;;;;;;;;;;;;14.10;64.41;97389.97;4425046;32;20119;-80
2022/04/01 06:38:00;;;;;;;;;;;;;;;14.50;63.16;97385.84;4425985;32;19982;-80
2022/04/01 06:40:29;;;;;;;;;;;;;;;14.38;63.71;97390.59;4413900;32;20375;-80
2022/04/01 06:42:56;;;;;;;;;;;;;;;14.17;64.61;97386.25;4413381;32;20331;-79
2022/04/01 06:45:23;;;;;;;;;;;;;;;14.08;65.13;97397.00;4414431;32;20031;-80
2022/04/01 06:47:53;;;;;;;;;;;;;;;14.31;64.03;97394.34;4407738;32;20041;-79
2022/04/01 06:50:21;;;;;;;;;;;;;;;14.34;64.34;97394.25;4411138;32;20327;-79
2022/04/01 06:52:52;;;;;;;;;;;;;;;14.51;64.20;97390.16;4413607;32;20360;-79
2022/04/01 06:55:26;;;;;;;;;;;;;;;14.52;64.52;97391.88;4415000;32;20041;-80
2022/04/01 06:57:54;;;;;;;;;;;;;;;14.55;64.45;97386.53;4430341;32;19996;-80
2022/04/01 07:00:22;;;;;;;;;;;;;;;14.56;64.56;97396.06;4430238;32;19989;-80
2022/04/01 07:02:49;;;;;;;;;;;;;;;14.57;64.43;97395.13;4415911;32;19985;-79
2022/04/01 07:05:16;;;;;;;;;;;;;;;14.68;64.15;97387.75;4430284;32;19977;-81
2022/04/01 07:07:43;;;;;;;;;;;;;;;14.69;63.88;97386.00;4429934;32;20024;-79
2022/04/01 07:10:13;;;;;;;;;;;;;;;14.74;63.83;97387.53;4438297;32;19997;-79
2022/04/01 07:12:40;;;;;;;;;;;;;;;14.53;64.79;97398.78;4430918;32;19998;-79
2022/04/01 07:15:08;;;;;;;;;;;;;;;14.72;63.62;97399.75;4443641;32;19985;-80
2022/04/01 07:17:38;;;;;;;;;;;;;;;14.93;62.79;97402.37;4442922;32;19974;-79
2022/04/01 07:20:10;;;;;;;;;;;;;;;14.75;61.84;97407.44;4428140;32;19985;-80
2022/04/01 07:22:47;;;;;;;;;;;;;;;14.58;62.58;97408.09;4438590;32;20006;-81
2022/04/01 07:25:14;;;;;;;;;;;;;;;13.92;63.83;97414.91;4445333;32;20433;-80
2022/04/01 07:27:40;;;;;;;;;;;;;;;14.10;62.72;97415.97;4443644;32;19973;-79
2022/04/01 07:30:09;;;;;;;;;;;;;;;13.41;64.29;97405.47;4417509;32;816313;-80
2022/04/01 07:32:39;;;;;;;;;;;;;;;13.75;63.21;97410.31;4443700;32;20036;-80
2022/04/01 07:35:08;;;;;;;;;;;;;;;13.90;63.00;97417.56;4442567;32;19989;-80
2022/04/01 07:37:35;;;;;;;;;;;;;;;14.02;61.99;97413.66;4427757;32;19976;-80
2022/04/01 07:43:06;;;;;;;;;;;;;;;13.88;62.42;97405.50;4444922;32;20775;-80
2022/04/01 07:45:34;;;;;;;;;;;;;;;13.62;63.07;97419.44;4445076;32;20333;-80
2022/04/01 07:48:02;;;;;;;;;;;;;;;13.75;62.01;97415.50;4396927;32;19989;-80
2022/04/01 07:50:29;;;;;;;;;;;;;;;13.46;62.71;97416.53;4453620;32;20297;-80
2022/04/01 07:52:56;;;;;;;;;;;;;;;13.68;61.29;97419.22;4426561;32;20000;-79
2022/04/01 07:55:23;;;;;;;;;;;;;;;13.70;61.91;97433.88;4450307;32;19993;-79
2022/04/01 07:57:52;;;;;;;;;;;;;;;13.92;61.21;97418.34;4452738;32;20396;-81
2022/04/01 08:00:43;;;;;;;;;;;;;;;13.63;61.71;97421.16;4437658;32;20329;-79
2022/04/01 08:03:15;;;;;;;;;;;;;;;13.72;60.61;97426.03;4446029;32;19981;-79
2022/04/01 08:05:44;;;;;;;;;;;;;;;13.52;61.28;97428.47;4460648;32;20352;-79
2022/04/01 08:08:11;;;;;;;;;;;;;;;12.96;64.01;97430.28;4412478;32;21480;-79
2022/04/01 08:10:39;;;;;;;;;;;;;;;13.11;63.43;97438.47;4433578;32;20665;-80
2022/04/01 08:13:11;;;;;;;;;;;;;;;13.17;63.46;97438.25;4430166;32;20337;-79
2022/04/01 08:15:43;;;;;;;;;;;;;;;12.88;63.96;97453.03;4439914;32;20030;-79
2022/04/01 08:18:19;;;;;;;;;;;;;;;13.02;64.29;97443.06;4418968;32;19999;-79
2022/04/01 08:20:46;;;;;;;;;;;;;;;13.20;63.44;97443.34;4435995;32;20060;-79
2022/04/01 08:23:13;;;;;;;;;;;;;;;13.45;62.45;97449.47;4428811;32;19985;-78
2022/04/01 08:25:41;;;;;;;;;;;;;;;13.26;63.64;97448.37;4432435;32;19972;-78
2022/04/01 08:28:08;;;;;;;;;;;;;;;13.20;63.04;97448.56;4431275;32;19989;-77
2022/04/01 08:30:36;;;;;;;;;;;;;;;12.95;64.42;97464.91;4433441;32;20015;-78
2022/04/01 08:33:03;;;;;;;;;;;;;;;13.28;63.20;97461.34;4445313;32;20580;-79
2022/04/01 08:35:30;;;;;;;;;;;;;;;13.20;63.80;97464.16;4446558;32;20330;-78
2022/04/01 08:37:58;;;;;;;;;;;;;;;13.12;63.49;97472.19;4419367;32;20408;-77
2022/04/01 08:40:25;;;;;;;;;;;;;;;13.31;62.73;97464.69;4446893;32;19989;-77
2022/04/01 08:42:53;;;;;;;;;;;;;;;12.99;63.49;97471.75;4420306;32;20270;-79
2022/04/01 08:45:20;;;;;;;;;;;;;;;13.04;63.64;97475.03;4432108;32;20030;-76
2022/04/01 08:47:47;;;;;;;;;;;;;;;12.83;63.98;97480.91;4445749;32;20022;-75
2022/04/01 08:50:15;;;;;;;;;;;;;;;13.04;63.52;97484.56;4445949;32;19993;-77
2022/04/01 08:52:42;;;;;;;;;;;;;;;13.10;63.18;97489.56;4432407;32;19992;-75
2022/04/01 08:55:09;;;;;;;;;;;;;;;13.18;62.89;97502.34;4445228;32;20348;-76
2022/04/01 08:57:38;;;;;;;;;;;;;;;13.14;62.91;97495.50;4446034;32;19969;-77
2022/04/01 09:00:25;;;;;;;;;;;;;;;13.04;62.24;97501.00;4446371;32;20023;-78
2022/04/01 09:02:57;;;;;;;;;;;;;;;13.11;62.40;97506.00;4438243;32;20325;-78
2022/04/01 09:05:24;;;;;;;;;;;;;;;12.96;63.19;97508.19;4439328;32;20295;-77
2022/04/01 09:08:01;;;;;;;;;;;;;;;12.63;64.25;97507.44;4432086;32;19996;-80
2022/04/01 09:10:28;;;;;;;;;;;;;;;12.93;63.54;97503.09;4431754;32;20036;-77
2022/04/01 09:12:55;;;;;;;;;;;;;;;13.03;63.23;97501.91;4404853;32;20031;-79
2022/04/01 09:15:22;;;;;;;;;;;;;;;13.26;61.77;97505.53;4412259;32;20392;-76
2022/04/01 09:17:51;;;;;;;;;;;;;;;12.80;63.76;97506.97;4419300;32;19977;-79
2022/04/01 09:20:17;;;;;;;;;;;;;;;12.91;61.63;97499.69;4405713;32;20008;-78
2022/04/01 09:22:44;;;;;;;;;;;;;;;13.07;61.49;97504.41;4416099;32;19990;-77
2022/04/01 09:25:15;;;;;;;;;;;;;;;13.06;60.94;97503.56;4415767;32;20022;-79
2022/04/01 09:27:46;;;;;;;;;;;;;;;13.13;61.89;97504.22;4415751;32;20029;-78
2022/04/01 09:30:17;;;;;;;;;;;;;;;13.19;62.98;97509.22;4415973;32;19986;-78
2022/04/01 09:32:51;;;;;;;;;;;;;;;13.04;62.29;97521.78;4401786;32;20052;-77
2022/04/01 09:35:20;;;;;;;;;;;;;;;13.21;61.02;97512.62;4415727;32;19996;-77
2022/04/01 09:37:47;;;;;;;;;;;;;;;13.24;60.27;97512.50;4388778;32;19997;-78
2022/04/01 09:40:17;;;;;;;;;;;;;;;12.99;60.62;97512.44;4415943;32;20322;-75
2022/04/01 09:42:51;;;;;;;;;;;;;;;12.70;61.71;97515.91;4442396;32;20278;-78
2022/04/01 09:45:18;;;;;;;;;;;;;;;12.84;60.43;97524.13;4446552;32;20360;-78
2022/04/01 09:47:46;;;;;;;;;;;;;;;12.61;61.49;97527.44;4421806;32;20337;-77
2022/04/01 09:50:13;;;;;;;;;;;;;;;12.43;61.71;97523.59;4419401;32;20030;-76
2022/04/01 09:52:41;;;;;;;;;;;;;;;12.57;61.98;97531.87;4445974;32;20034;-77
2022/04/01 09:55:09;;;;;;;;;;;;;;;12.60;61.36;97522.25;4432119;32;20474;-77
2022/04/01 09:57:36;;;;;;;;;;;;;;;12.38;61.89;97530.69;4446282;32;19989;-78
2022/04/01 10:00:04;;;;;;;;;;;;;;;12.29;62.69;97530.94;4445733;32;20031;-78
2022/04/01 10:02:38;;;;;;;;;;;;;;;12.18;63.53;97530.38;4439751;32;20004;-76
2022/04/01 10:05:06;;;;;;;;;;;;;;;12.72;61.39;97529.69;4432679;32;19985;-76
2022/04/01 10:07:33;;;;;;;;;;;;;;;12.15;63.15;97533.06;4446126;32;19977;-76
2022/04/01 10:10:00;;;;;;;;;;;;;;;12.36;62.17;97540.25;4431870;32;19997;-79
2022/04/01 10:12:30;;;;;;;;;;;;;;;12.03;63.33;97537.69;4432225;32;20000;-77
2022/04/01 10:14:57;;;;;;;;;;;;;;;12.12;64.25;97538.31;4411582;32;20068;-78
2022/04/01 10:17:26;;;;;;;;;;;;;;;12.18;63.84;97544.19;4433150;32;21030;-78
2022/04/01 10:19:54;;;;;;;;;;;;;;;12.15;63.24;97543.44;4446461;32;19978;-77
2022/04/01 10:22:21;;;;;;;;;;;;;;;12.19;63.34;97550.22;4445746;32;19981;-79
2022/04/01 10:25:17;;;;;;;;;;;;;;;12.42;62.55;97553.06;4445761;32;20338;-79
2022/04/01 10:27:50;;;;;;;;;;;;;;;12.05;64.17;97555.78;4402993;32;19989;-79
2022/04/01 10:30:17;;;;;;;;;;;;;;;11.83;64.46;97555.47;4429073;32;19999;-77
2022/04/01 10:32:45;;;;;;;;;;;;;;;12.16;63.59;97560.72;4442211;32;20001;-78
2022/04/01 10:35:22;;;;;;;;;;;;;;;12.03;62.96;97561.03;4439105;32;20012;-80
2022/04/01 10:38:13;;;;;;;;;;;;;;;12.11;61.69;97568.59;4435985;32;20000;-80
2022/04/01 10:40:45;;;;;;;;;;;;;;;12.00;62.39;97571.50;4443410;32;20038;-78
2022/04/01 10:43:27;;;;;;;;;;;;;;;12.00;62.38;97574.09;4436077;32;19982;-79
2022/04/01 10:46:14;;;;;;;;;;;;;;;12.07;61.59;97567.84;4427446;32;20787;-79
2022/04/01 10:51:59;;;;;;;;;;;;;;;11.90;63.68;97575.22;4442821;32;20035;-78
2022/04/01 10:54:29;;;;;;;;;;;;;;;12.00;63.56;97581.84;4434617;32;20028;-76
2022/04/01 10:56:57;;;;;;;;;;;;;;;11.66;64.86;97586.16;4445801;32;20034;-78
2022/04/01 10:59:24;;;;;;;;;;;;;;;11.41;66.00;97584.16;4446090;32;19987;-77
2022/04/01 11:01:57;;;;;;;;;;;;;;;11.70;65.85;97585.19;4445195;32;19989;-76
2022/04/01 11:04:26;;;;;;;;;;;;;;;11.97;64.39;97581.94;4445953;32;20059;-78
2022/04/01 11:06:55;;;;;;;;;;;;;;;12.03;65.60;97586.97;4444133;32;20033;-78
2022/04/01 11:09:38;;;;;;;;;;;;;;;12.01;65.21;97582.72;4444703;32;20023;-78
2022/04/01 11:12:14;;;;;;;;;;;;;;;12.08;63.27;97590.28;4445349;32;20004;-79
2022/04/01 11:14:56;;;;;;;;;;;;;;;12.00;64.16;97589.62;4445588;32;20008;-79
2022/04/01 11:17:38;;;;;;;;;;;;;;;11.69;64.51;97597.28;4444993;32;20027;-80
2022/04/01 11:20:05;;;;;;;;;;;;;;;11.79;65.38;97597.91;4445357;32;19970;-80
2022/04/01 11:22:52;;;;;;;;;;;;;;;12.32;63.08;97593.13;4440099;32;20035;-80
2022/04/01 11:25:23;;;;;;;;;;;;;;;12.17;63.77;97588.34;4439261;32;20030;-81
2022/04/01 11:27:56;;;;;;;;;;;;;;;12.69;60.47;97595.53;4447653;32;20036;-80
2022/04/01 11:30:33;;;;;;;;;;;;;;;12.30;62.38;97594.91;4441323;32;19981;-76
2022/04/01 11:33:06;;;;;;;;;;;;;;;12.52;61.51;97590.81;4418795;32;20322;-78
2022/04/01 11:35:35;;;;;;;;;;;;;;;12.48;62.19;97588.38;4444559;32;19999;-78
2022/04/01 11:38:02;;;;;;;;;;;;;;;12.14;63.79;97593.59;4420474;32;19977;-79
2022/04/01 11:40:30;;;;;;;;;;;;;;;12.03;63.88;97592.16;4432538;32;19992;-78
2022/04/01 11:43:04;;;;;;;;;;;;;;;12.43;62.78;97595.41;4405294;32;20057;-77
2022/04/01 11:45:33;;;;;;;;;;;;;;;12.70;62.34;97591.19;4447250;32;19989;-76
2022/04/01 11:48:01;;;;;;;;;;;;;;;12.68;61.99;97583.44;4431064;32;20394;-78
2022/04/01 11:50:28;;;;;;;;;;;;;;;12.65;61.11;97586.13;4427978;32;20844;-77
2022/04/01 11:52:56;;;;;;;;;;;;;;;12.48;61.59;97589.22;4380943;32;20452;-78
2022/04/01 11:55:23;;;;;;;;;;;;;;;12.37;63.36;97591.22;4433368;32;20003;-77
2022/04/01 11:57:52;;;;;;;;;;;;;;;12.40;62.05;97591.16;4427665;32;20321;-77
2022/04/01 12:00:21;;;;;;;;;;;;;;;12.44;63.26;97582.38;4442852;32;19992;-78
2022/04/01 12:02:51;;;;;;;;;;;;;;;12.74;60.80;97579.84;4437237;32;19996;-77
2022/04/01 12:05:18;;;;;;;;;;;;;;;12.35;62.83;97585.25;4434687;32;20456;-81
2022/04/01 12:10:59;;;;;;;;;;;;;;;12.72;61.49;97571.22;4424565;32;19989;-79
2022/04/01 12:13:29;;;;;;;;;;;;;;;12.76;60.89;97578.91;4432198;32;19989;-79
2022/04/01 12:15:58;;;;;;;;;;;;;;;12.78;62.66;97576.25;4439591;32;20520;-81
2022/04/01 12:18:28;;;;;;;;;;;;;;;12.77;63.65;97584.94;4406906;32;20056;-81
2022/04/01 12:21:04;;;;;;;;;;;;;;;13.01;62.58;97588.53;4437982;32;19991;-77
2022/04/01 12:23:35;;;;;;;;;;;;;;;12.49;62.58;97593.50;4434104;32;19997;-79
2022/04/01 12:26:02;;;;;;;;;;;;;;;12.32;63.58;97598.31;4437551;32;20401;-81
2022/04/01 12:28:37;;;;;;;;;;;;;;;12.64;61.07;97599.16;4431711;32;19998;-77
2022/04/01 12:31:04;;;;;;;;;;;;;;;12.60;61.05;97597.53;4438926;32;19986;-80
2022/04/01 12:33:32;;;;;;;;;;;;;;;12.29;62.33;97603.59;4431330;32;20060;-80
2022/04/01 12:36:00;;;;;;;;;;;;;;;12.19;62.43;97607.28;4421449;32;20449;-81
2022/04/01 12:38:27;;;;;;;;;;;;;;;12.08;61.97;97607.56;4421396;32;20330;-78
2022/04/01 12:40:58;;;;;;;;;;;;;;;12.18;62.46;97621.16;4422075;32;19977;-81
2022/04/01 12:43:40;;;;;;;;;;;;;;;12.39;60.59;97614.56;4421848;32;20081;-79
2022/04/01 12:46:07;;;;;;;;;;;;;;;12.42;60.86;97623.09;4434877;32;20037;-81
2022/04/01 12:48:38;;;;;;;;;;;;;;;12.36;62.03;97625.00;4440078;32;20514;-81
2022/04/01 12:51:06;;;;;;;;;;;;;;;12.71;60.91;97622.31;4422925;32;20486;-80
2022/04/01 12:53:35;;;;;;;;;;;;;;;12.38;62.87;97624.09;4442665;32;20065;-79
2022/04/01 12:56:20;;;;;;;;;;;;;;;12.64;61.73;97627.72;4434278;32;19995;-80
2022/04/01 12:58:51;;;;;;;;;;;;;;;12.55;60.57;97632.25;4448334;32;19993;-78
2022/04/01 13:01:19;;;;;;;;;;;;;;;12.47;60.78;97618.62;4449709;32;19981;-81
2022/04/01 13:03:51;;;;;;;;;;;;;;;12.27;60.70;97631.28;4447591;32;20110;-79
2022/04/01 13:06:18;;;;;;;;;;;;;;;11.79;62.57;97622.09;4435966;32;20038;-76
2022/04/01 13:08:45;;;;;;;;;;;;;;;11.99;61.78;97632.00;4435559;32;20752;-80
2022/04/01 13:11:15;;;;;;;;;;;;;;;12.32;60.21;97638.06;4446141;32;19990;-81